Warm Up - Red
Course: Road America · 2026-09-06 08:40AM
Weather Conditions
Temp 68°F
(62–72°F range)
Temp type NORMAL
Track DRY
Precip 0.0 mm (NONE)
Humidity 81%
Wind 8 km/h
Cloud 6%
OVERALL
BY CLASS
| POS | # | NAME | CLASS | BEST LAP | GAP | INTERVAL | LAPS |
|---|---|---|---|---|---|---|---|
| 1 | 28 | BOB MUELLER | GTA3 | 2:08.299 | - | - | 6 |
| 2 | 267 | MATTHEW SIEGAL | STG | 2:10.344 | 2.045 | 2.045 | 6 |
| 3 | 227 | JOEL JOHNSON | STG | 2:11.991 | 3.692 | 1.647 | 6 |
| 4 | 91 | RENE ROBICHAUD | GTA4 | 2:12.274 | 3.975 | 0.283 | 6 |
| 5 | 270 | GRIFFIN FUJII | STG | 2:12.897 | 4.598 | 0.623 | 6 |
| 6 | 57 | JOHN GOETZ | GTA4 | 2:13.443 | 5.144 | 0.546 | 5 |
| 7 | 960 | KEVIN ROUSH | GTA2 | 2:13.493 | 5.194 | 0.050 | 6 |
| 8 | 233 | DARREN FENZ | STG | 2:13.635 | 5.336 | 0.142 | 6 |
| 9 | 59 | KEVIN O'CONNELL | GTA4 | 2:13.668 | 5.369 | 0.033 | 5 |
| 10 | 211 | ERIK BENEDIKT | STG | 2:13.921 | 5.622 | 0.253 | 6 |
| 11 | 844 | GIANLUCA PETTITI | GTC8 | 2:15.306 | 7.007 | 1.385 | 6 |
| 12 | 277 | TOM BURKE | STG | 2:15.495 | 7.196 | 0.189 | 6 |
| 13 | 272 | TROY PETERSEN | STG | 2:15.753 | 7.454 | 0.258 | 6 |
| 14 | 08 | CLIFF CAYER | GTA4 | 2:16.172 | 7.873 | 0.419 | 6 |
| 15 | 71 | GREGG ESAKOFF | GTA4 | 2:16.475 | 8.176 | 0.303 | 6 |
| 16 | 81 | GEOFF ISRINGHAUSEN | GTA3 | 2:17.719 | 9.420 | 1.244 | 6 |
| 17 | 74 | KEITH CLARK | GTC6 | 2:18.842 | 10.543 | 1.123 | 6 |
| 18 | 924 | JEFF SMITH | GTC6 | 2:19.680 | 11.381 | 0.838 | 6 |
| 19 | 40 | ANN DOHERTY | GTC7 | 2:19.962 | 11.663 | 0.282 | 6 |
| 20 | 195 | MICHAEL NANCE | STC | 2:21.761 | 13.462 | 1.799 | 6 |
| 21 | 707 | KERRY BROWN | GTC6 | 2:22.757 | 14.458 | 0.996 | 6 |
| 22 | 219 | MARK POLING | STG | 2:23.776 | 15.477 | 1.019 | 5 |
| 23 | 176 | PETER HAABESTAD | STC | 2:24.403 | 16.104 | 0.627 | 4 |
| 24 | 121 | DOUG LAWSON | STC | 2:24.968 | 16.669 | 0.565 | 4 |
| 25 | 559 | MIKE KRESSER | GTA3 | 2:26.688 | 18.389 | 1.720 | 4 |
| 26 | 338 | ERNIE PUZELIS | GTC7 | 2:27.521 | 19.222 | 0.833 | 5 |
Pole Position